createdAt,value
2016-04-29T00:00:45.880Z,4.63
2016-04-29T00:01:45.726Z,4.66
2016-04-29T00:02:45.869Z,4.66
2016-04-29T00:03:45.872Z,4.71
2016-04-29T00:04:45.875Z,4.71
2016-04-29T00:05:45.861Z,4.68
2016-04-29T00:06:45.864Z,4.75
2016-04-29T00:07:45.866Z,4.71
2016-04-29T00:08:45.869Z,4.75
2016-04-29T00:09:45.872Z,4.68
2016-04-29T00:10:45.860Z,4.67
2016-04-29T00:11:45.878Z,4.66
2016-04-29T00:12:45.879Z,4.64
2016-04-29T00:13:45.882Z,4.66
2016-04-29T00:14:47.722Z,4.6
2016-04-29T00:15:45.967Z,4.61
2016-04-29T00:16:45.994Z,4.56
2016-04-29T00:17:46.036Z,4.61
2016-04-29T00:18:46.086Z,4.58
2016-04-29T00:19:46.103Z,4.53
2016-04-29T00:20:46.103Z,4.5
2016-04-29T00:21:46.106Z,4.42
2016-04-29T00:22:46.137Z,4.49
2016-04-29T00:23:46.151Z,4.4
2016-04-29T00:24:46.159Z,4.45
2016-04-29T00:25:46.151Z,4.43
2016-04-29T00:26:46.159Z,4.4
2016-04-29T00:27:46.150Z,4.36
2016-04-29T00:28:46.157Z,4.32
2016-04-29T00:29:46.053Z,4.24
2016-04-29T00:30:46.635Z,4.25
2016-04-29T00:31:46.171Z,4.18
2016-04-29T00:32:46.191Z,4.21
2016-04-29T00:33:46.180Z,4.16
2016-04-29T00:34:46.183Z,4.04
2016-04-29T00:35:46.187Z,4.02
2016-04-29T00:36:46.174Z,4
2016-04-29T00:37:46.193Z,3.92
2016-04-29T00:38:46.181Z,3.88
2016-04-29T00:39:46.185Z,3.91
2016-04-29T00:40:46.203Z,3.77
2016-04-29T00:41:46.175Z,3.82
2016-04-29T00:42:46.178Z,3.77
2016-04-29T00:43:46.181Z,3.78
2016-04-29T18:19:17.953Z,11.45
2016-04-29T18:20:18.253Z,11.34
2016-04-29T18:21:18.225Z,11.23
2016-04-29T18:22:18.213Z,11.25
2016-04-29T18:23:18.247Z,11.18
2016-04-29T18:24:18.233Z,11.13
2016-04-29T18:25:18.236Z,11.12
2016-04-29T22:35:22.512Z,4.95
2016-04-29T22:35:34.996Z,4.92
2016-04-29T22:36:34.983Z,4.89
2016-04-29T22:37:34.986Z,4.78
2016-04-29T22:38:34.832Z,4.76
2016-04-29T22:39:34.992Z,4.82
2016-04-29T22:40:34.995Z,4.82
2016-04-29T22:41:34.998Z,4.86
2016-04-29T22:42:34.843Z,4.82
2016-04-29T22:43:34.986Z,4.74
2016-04-29T22:44:35.005Z,4.83
2016-04-29T22:45:34.991Z,4.67
2016-04-29T22:46:34.838Z,4.7
2016-04-29T22:47:34.998Z,4.71
2016-04-29T22:48:35.094Z,4.61
2016-04-29T22:49:34.986Z,4.63
2016-04-29T22:50:35.005Z,4.64
2016-04-29T22:51:34.977Z,4.6
2016-04-29T22:52:34.838Z,4.61
2016-04-29T22:53:34.997Z,4.6
2016-04-29T22:54:34.845Z,4.67
2016-04-29T22:55:35.003Z,4.66
2016-04-29T22:56:35.005Z,4.63
2016-04-29T22:57:34.978Z,4.67
2016-04-29T22:58:34.840Z,4.63
2016-04-29T22:59:34.999Z,4.6
2016-04-29T23:00:35.002Z,4.57
2016-04-29T23:01:34.988Z,4.56
2016-04-29T23:02:34.990Z,4.53
2016-04-29T23:03:34.993Z,4.52
2016-04-29T23:04:34.996Z,4.5
2016-04-29T23:05:34.999Z,4.46
2016-04-29T23:06:34.987Z,4.48
2016-04-29T23:07:34.989Z,4.39
2016-04-29T23:08:35.006Z,4.34
2016-04-29T23:09:34.995Z,4.34
2016-04-29T23:10:34.998Z,4.36
2016-04-29T23:11:34.843Z,4.36
2016-04-29T23:12:34.831Z,4.39
2016-04-29T23:13:34.990Z,4.39
2016-04-29T23:14:35.008Z,4.42
2016-04-29T23:15:34.682Z,4.36
2016-04-29T23:16:34.982Z,4.38
2016-04-29T23:17:34.984Z,4.34
2016-04-29T23:18:34.878Z,4.22
2016-04-29T23:19:34.989Z,4.22
2016-04-29T23:20:34.992Z,4.25
2016-04-29T23:21:34.980Z,4.32
2016-04-29T23:22:34.997Z,4.28
2016-04-29T23:23:34.829Z,4.24
2016-04-29T23:24:34.831Z,4.25
2016-04-29T23:25:34.990Z,4.24
2016-04-29T23:26:34.993Z,4.24
2016-04-29T23:27:34.996Z,4.18
2016-04-29T23:28:34.827Z,4.22
2016-04-29T23:29:35.002Z,4.22
2016-04-29T23:30:34.988Z,4.14
2016-04-29T23:31:34.991Z,4.1
2016-04-29T23:32:34.838Z,4.2
2016-04-29T23:33:35.684Z,4.12
2016-04-29T23:34:34.999Z,4.13
2016-04-29T23:35:34.986Z,4.07
2016-04-29T23:36:34.848Z,4.06
2016-04-29T23:37:34.991Z,4.12
2016-04-29T23:38:34.993Z,4.03
2016-04-29T23:39:34.981Z,3.99
2016-04-29T23:40:34.984Z,3.95
2016-04-29T23:41:34.986Z,3.95
2016-04-29T23:42:34.989Z,3.86
2016-04-29T23:43:34.992Z,3.88
2016-04-29T23:44:34.979Z,3.76
2016-04-29T23:45:34.981Z,3.84
2016-04-29T23:46:34.984Z,3.84
2016-04-29T23:47:34.987Z,3.76
2016-04-29T23:48:35.287Z,3.76
2016-04-29T23:49:34.993Z,3.76
2016-04-29T23:50:34.995Z,3.71
2016-04-29T23:51:34.998Z,3.68
2016-04-29T23:52:34.828Z,3.7
2016-04-29T23:53:34.988Z,3.66
2016-04-29T23:54:34.991Z,3.78
2016-04-29T23:55:34.993Z,3.78
2016-04-29T23:56:34.824Z,3.78
2016-04-29T23:57:34.982Z,3.76
2016-04-29T23:58:34.985Z,3.74
2016-04-29T23:59:34.988Z,3.77
